createdAt,value
2023-02-12T00:01:12.782Z,8.46
2023-02-12T00:02:45.247Z,8.42
2023-02-12T00:04:17.822Z,8.41
2023-02-12T00:05:50.026Z,8.41
2023-02-12T00:07:22.387Z,8.40
2023-02-12T00:09:01.247Z,8.40
2023-02-12T00:10:33.363Z,8.38
2023-02-12T00:12:05.767Z,8.38
2023-02-12T00:13:38.587Z,8.37
2023-02-12T00:15:15.331Z,8.34
2023-02-12T00:16:48.771Z,8.36
2023-02-12T00:18:21.234Z,8.39
2023-02-12T00:19:55.846Z,8.42
2023-02-12T00:21:30.837Z,8.44
2023-02-12T00:23:04.654Z,8.38
2023-02-12T00:24:36.898Z,8.33
2023-02-12T00:26:14.930Z,8.34
2023-02-12T00:27:51.689Z,8.35
2023-02-12T00:29:24.053Z,8.34
2023-02-12T00:31:05.883Z,8.33
2023-02-12T00:32:38.223Z,8.32
2023-02-12T00:34:10.880Z,8.30
2023-02-12T00:35:47.646Z,8.32
2023-02-12T00:37:21.958Z,8.34
2023-02-12T00:38:55.457Z,8.35
2023-02-12T00:40:29.970Z,8.37
2023-02-12T00:42:02.120Z,8.38
2023-02-12T00:43:34.082Z,8.39
2023-02-12T00:45:06.552Z,8.36
2023-02-12T00:46:42.011Z,8.35
2023-02-12T00:48:15.473Z,8.33
2023-02-12T00:49:47.496Z,8.31
2023-02-12T00:51:19.664Z,8.28
2023-02-12T00:52:51.777Z,8.26
2023-02-12T00:54:23.932Z,8.27
2023-02-12T00:55:59.665Z,8.30
2023-02-12T00:57:33.730Z,8.32
2023-02-12T00:59:05.835Z,8.31
2023-02-12T01:00:37.894Z,8.31
2023-02-12T01:02:10.007Z,8.29
2023-02-12T01:03:42.103Z,8.27
2023-02-12T01:05:14.313Z,8.23
2023-02-12T01:06:46.697Z,8.20
2023-02-12T01:08:18.850Z,8.18
2023-02-12T01:09:50.965Z,8.17
2023-02-12T01:11:23.176Z,8.16
2023-02-12T01:12:55.441Z,8.16
2023-02-12T01:14:27.592Z,8.18
2023-02-12T01:16:20.272Z,8.20
2023-02-12T01:17:53.554Z,8.20
2023-02-12T01:19:25.791Z,8.18
2023-02-12T01:20:59.187Z,8.21
2023-02-12T01:22:31.227Z,8.24
2023-02-12T01:24:05.069Z,8.27
2023-02-12T01:25:38.790Z,8.29
2023-02-12T01:27:10.866Z,8.33
2023-02-12T01:28:44.580Z,8.35
2023-02-12T01:30:17.015Z,8.36
2023-02-12T01:31:49.905Z,8.38
2023-02-12T01:33:22.826Z,8.39
2023-02-12T01:34:55.149Z,8.41
2023-02-12T01:36:28.897Z,8.43
2023-02-12T01:38:01.379Z,8.41
2023-02-12T01:39:33.733Z,8.41
2023-02-12T01:41:26.836Z,8.39
2023-02-12T01:43:03.509Z,8.40
2023-02-12T01:44:37.132Z,8.38
2023-02-12T01:46:12.170Z,8.38
2023-02-12T01:47:48.689Z,8.39
2023-02-12T01:49:47.321Z,8.40
2023-02-12T01:51:20.893Z,8.42
2023-02-12T01:52:56.161Z,8.43
2023-02-12T01:54:30.053Z,8.44
2023-02-12T01:56:03.295Z,8.43
2023-02-12T01:57:39.285Z,8.45
2023-02-12T01:59:12.162Z,8.45
2023-02-12T02:00:44.733Z,8.46
2023-02-12T02:02:17.364Z,8.47
2023-02-12T02:03:53.742Z,8.46
2023-02-12T02:05:37.260Z,8.48
2023-02-12T02:07:12.274Z,8.47
2023-02-12T02:08:44.705Z,8.47
2023-02-12T02:10:19.498Z,8.45
2023-02-12T02:12:10.717Z,8.39
2023-02-12T02:14:04.038Z,8.36
2023-02-12T02:15:37.252Z,8.32
2023-02-12T02:17:24.224Z,8.28
2023-02-12T02:19:08.712Z,8.29
2023-02-12T02:21:10.452Z,8.30
2023-02-12T02:22:51.450Z,8.33
2023-02-12T02:24:41.770Z,8.33
2023-02-12T02:26:35.133Z,8.32
2023-02-12T02:28:26.076Z,8.32
2023-02-12T02:30:27.969Z,8.33
2023-02-12T02:32:07.943Z,8.30
2023-02-12T02:33:46.806Z,8.30
2023-02-12T02:36:04.180Z,8.29
2023-02-12T02:38:04.593Z,8.29
2023-02-12T02:39:49.952Z,8.30
2023-02-12T02:41:31.896Z,8.32
2023-02-12T02:43:23.664Z,8.32
2023-02-12T02:45:09.074Z,8.33
2023-02-12T02:46:46.855Z,8.36
2023-02-12T02:48:26.640Z,8.36
2023-02-12T02:50:29.902Z,8.38
2023-02-12T02:52:06.096Z,8.37
2023-02-12T02:53:44.049Z,8.36
2023-02-12T02:55:19.266Z,8.36
2023-02-12T02:56:57.016Z,8.36
2023-02-12T02:58:39.443Z,8.32
2023-02-12T03:00:21.491Z,8.33
2023-02-12T03:01:57.932Z,8.32
2023-02-12T03:03:35.318Z,8.31
2023-02-12T03:05:17.559Z,8.33
2023-02-12T03:06:58.358Z,8.32
2023-02-12T03:08:36.709Z,8.33
2023-02-12T03:10:18.093Z,8.33
2023-02-12T03:11:51.220Z,8.31
2023-02-12T03:13:30.926Z,8.31
2023-02-12T03:15:09.686Z,8.28
2023-02-12T03:16:52.630Z,8.29
2023-02-12T03:18:28.417Z,8.29
2023-02-12T03:20:08.692Z,8.29
2023-02-12T03:22:09.245Z,8.30
2023-02-12T03:23:46.910Z,8.24
2023-02-12T03:25:23.878Z,8.24
2023-02-12T03:27:06.000Z,8.15
2023-02-12T03:28:39.223Z,8.13
2023-02-12T03:30:11.875Z,8.11
2023-02-12T03:31:43.986Z,8.13
2023-02-12T03:33:25.188Z,8.10
2023-02-12T03:35:21.600Z,8.08
2023-02-12T03:36:59.919Z,8.09
2023-02-12T03:38:54.097Z,8.13
2023-02-12T03:40:33.571Z,8.15
2023-02-12T03:42:13.092Z,8.15
2023-02-12T03:43:50.652Z,8.16
2023-02-12T03:45:48.507Z,8.14
2023-02-12T03:48:34.789Z,8.12
2023-02-12T03:50:13.343Z,8.13
2023-02-12T03:51:45.965Z,8.12
2023-02-12T03:53:21.356Z,8.08
2023-02-12T03:54:53.847Z,8.08
2023-02-12T03:56:30.541Z,8.10
2023-02-12T03:58:04.009Z,8.11
2023-02-12T03:59:37.323Z,8.13
2023-02-12T04:01:10.190Z,8.14
2023-02-12T04:02:43.563Z,8.14
2023-02-12T04:04:16.296Z,8.16
2023-02-12T04:05:48.435Z,8.18
2023-02-12T04:07:20.693Z,8.20
2023-02-12T04:08:53.858Z,8.21
2023-02-12T04:10:36.491Z,8.22
2023-02-12T04:12:42.540Z,8.21
2023-02-12T04:14:34.944Z,8.22
2023-02-12T04:16:25.442Z,8.17
2023-02-12T04:18:06.075Z,8.08
2023-02-12T04:20:07.422Z,8.03
2023-02-12T04:22:00.362Z,8.01
2023-02-12T04:23:41.822Z,8.01
2023-02-12T04:25:22.888Z,8.03
2023-02-12T04:27:11.615Z,8.05
2023-02-12T04:28:53.536Z,8.05
2023-02-12T04:30:38.931Z,7.99
2023-02-12T04:32:16.713Z,7.95
2023-02-12T04:34:11.417Z,7.91
2023-02-12T04:35:46.137Z,7.90
2023-02-12T04:37:45.805Z,7.93
2023-02-12T04:39:22.758Z,7.90
2023-02-12T04:40:54.964Z,7.90
2023-02-12T04:42:27.410Z,7.88
2023-02-12T04:43:59.595Z,7.89
2023-02-12T04:45:34.287Z,7.86
2023-02-12T04:47:07.606Z,7.89
2023-02-12T04:48:53.075Z,7.93
2023-02-12T04:50:26.577Z,7.94
2023-02-12T04:51:59.287Z,7.96
2023-02-12T04:53:31.457Z,7.97
2023-02-12T04:55:03.877Z,7.98
2023-02-12T04:56:36.192Z,7.95
2023-02-12T04:58:08.337Z,7.96
2023-02-12T04:59:40.489Z,7.95
2023-02-12T05:01:13.083Z,7.94
2023-02-12T05:02:45.333Z,7.94
2023-02-12T05:04:18.461Z,7.95
2023-02-12T05:05:50.597Z,7.95
2023-02-12T05:07:22.843Z,7.93
2023-02-12T05:08:55.083Z,7.95
2023-02-12T05:10:27.299Z,7.94
2023-02-12T05:11:59.406Z,7.92
2023-02-12T05:13:32.107Z,7.95
2023-02-12T05:15:04.870Z,7.98
2023-02-12T05:16:37.157Z,7.99
2023-02-12T05:18:09.815Z,7.99
2023-02-12T05:19:42.050Z,8.00
2023-02-12T05:21:14.502Z,7.99
2023-02-12T05:22:46.831Z,7.99
2023-02-12T05:24:19.014Z,7.97
2023-02-12T05:25:51.116Z,7.97
2023-02-12T05:27:23.314Z,7.96
2023-02-12T05:28:55.526Z,7.94
2023-02-12T05:30:27.803Z,7.94
2023-02-12T05:32:27.588Z,7.95
2023-02-12T05:34:00.000Z,7.93
2023-02-12T05:35:35.345Z,7.92
2023-02-12T05:37:07.557Z,7.89
2023-02-12T05:38:39.832Z,7.93
2023-02-12T05:40:12.398Z,7.94
2023-02-12T05:41:44.755Z,7.94
2023-02-12T05:43:19.297Z,7.93
2023-02-12T05:44:51.370Z,7.92
2023-02-12T05:46:24.054Z,7.88
2023-02-12T05:47:57.055Z,7.89
2023-02-12T05:49:29.325Z,7.90
2023-02-12T05:51:06.277Z,7.95
2023-02-12T05:52:38.411Z,7.92
2023-02-12T05:54:11.259Z,7.91
2023-02-12T05:55:43.486Z,7.91
2023-02-12T05:57:15.520Z,7.89
2023-02-12T05:58:49.817Z,7.91
2023-02-12T06:00:22.698Z,7.92
2023-02-12T06:01:54.774Z,7.91
2023-02-12T06:03:26.918Z,7.92
2023-02-12T06:04:59.028Z,7.93
2023-02-12T06:06:32.104Z,7.94
2023-02-12T06:08:04.521Z,7.96
2023-02-12T06:09:37.707Z,7.96
2023-02-12T06:11:14.081Z,7.95
2023-02-12T06:12:46.225Z,7.97
2023-02-12T06:14:20.334Z,7.96
2023-02-12T06:15:52.500Z,7.98
2023-02-12T06:17:24.562Z,7.98
2023-02-12T06:18:57.186Z,7.95
2023-02-12T06:20:31.841Z,7.97
2023-02-12T06:22:04.018Z,7.96
2023-02-12T06:23:36.183Z,7.97
2023-02-12T06:25:08.421Z,7.98
2023-02-12T06:26:40.956Z,8.01
2023-02-12T06:28:13.074Z,7.99
2023-02-12T06:29:45.517Z,7.97
2023-02-12T06:31:32.251Z,8.00
2023-02-12T06:33:04.642Z,8.01
2023-02-12T06:34:37.076Z,8.02
2023-02-12T06:36:09.425Z,8.02
2023-02-12T06:37:42.051Z,8.03
2023-02-12T06:39:20.703Z,7.99
2023-02-12T06:40:53.126Z,7.97
2023-02-12T06:42:25.710Z,7.98
2023-02-12T06:43:58.012Z,7.99
2023-02-12T06:45:37.150Z,7.94
2023-02-12T06:47:11.643Z,7.95
2023-02-12T06:48:43.830Z,7.93
2023-02-12T06:50:18.641Z,7.94
2023-02-12T06:51:53.443Z,7.89
2023-02-12T06:53:26.040Z,7.88
2023-02-12T06:54:58.590Z,7.88
2023-02-12T06:56:30.797Z,7.86
2023-02-12T06:58:05.084Z,7.88
2023-02-12T06:59:37.333Z,7.87
2023-02-12T07:01:18.139Z,7.85
2023-02-12T07:02:55.006Z,7.83
2023-02-12T07:04:27.410Z,7.86
2023-02-12T07:05:59.535Z,7.83
2023-02-12T07:07:32.161Z,7.88
2023-02-12T07:09:07.340Z,7.91
2023-02-12T07:10:45.228Z,7.92
2023-02-12T07:12:20.710Z,7.93
2023-02-12T07:13:57.062Z,7.94
2023-02-12T07:15:32.259Z,7.91
2023-02-12T07:17:09.179Z,7.85
2023-02-12T07:18:48.763Z,7.86
2023-02-12T07:20:28.306Z,7.85
2023-02-12T07:22:07.757Z,7.83
2023-02-12T07:23:42.582Z,7.87
2023-02-12T07:25:16.351Z,7.84
2023-02-12T07:26:48.735Z,7.80
2023-02-12T07:28:21.072Z,7.84
2023-02-12T07:29:53.504Z,7.88
2023-02-12T07:31:28.000Z,7.91
2023-02-12T07:33:04.981Z,7.95
2023-02-12T07:34:50.608Z,7.99
2023-02-12T07:36:25.450Z,8.01
2023-02-12T07:38:00.572Z,8.04
2023-02-12T07:39:32.732Z,8.08
2023-02-12T07:41:15.381Z,8.05
2023-02-12T07:42:50.281Z,8.03
2023-02-12T07:44:22.666Z,8.03
2023-02-12T07:45:55.265Z,8.05
2023-02-12T07:47:27.898Z,8.09
2023-02-12T07:49:01.649Z,8.09
2023-02-12T07:50:33.736Z,8.02
2023-02-12T07:52:05.884Z,8.00
2023-02-12T07:53:38.574Z,8.03
2023-02-12T07:55:11.025Z,8.04
2023-02-12T07:56:47.093Z,7.99
2023-02-12T07:58:19.524Z,7.98
2023-02-12T07:59:51.596Z,7.97
2023-02-12T08:01:27.292Z,8.01
2023-02-12T08:02:59.736Z,8.06
2023-02-12T08:04:33.014Z,8.10
2023-02-12T08:06:14.214Z,8.07
2023-02-12T08:07:47.047Z,8.08
2023-02-12T08:09:21.044Z,8.10
2023-02-12T08:10:57.669Z,8.13
2023-02-12T08:12:32.240Z,8.12
2023-02-12T08:14:07.195Z,8.14
2023-02-12T08:15:42.488Z,8.13
2023-02-12T08:17:17.104Z,8.17
2023-02-12T08:18:53.525Z,8.19
2023-02-12T08:20:25.881Z,8.20
2023-02-12T08:21:58.882Z,8.18
2023-02-12T08:23:34.661Z,8.17
2023-02-12T08:25:07.236Z,8.15
2023-02-12T08:26:40.797Z,8.13
2023-02-12T08:28:16.887Z,8.09
2023-02-12T08:29:58.464Z,8.12
2023-02-12T08:31:37.942Z,8.15
2023-02-12T08:33:10.147Z,8.14
2023-02-12T08:34:42.436Z,8.19
2023-02-12T08:36:20.070Z,8.17
2023-02-12T08:38:02.703Z,8.14
2023-02-12T08:39:37.654Z,8.13
2023-02-12T08:41:16.072Z,8.16
2023-02-12T08:42:48.448Z,8.19
2023-02-12T08:44:20.860Z,8.18
2023-02-12T08:45:53.516Z,8.20
2023-02-12T08:47:26.115Z,8.24
2023-02-12T08:49:12.080Z,8.23
2023-02-12T08:50:46.364Z,8.27
2023-02-12T08:52:19.987Z,8.29
2023-02-12T08:53:57.958Z,8.28
2023-02-12T08:55:34.857Z,8.36
2023-02-12T08:57:17.591Z,8.37
2023-02-12T09:01:10.445Z,8.39
2023-02-12T09:02:53.670Z,8.39
2023-02-12T09:04:39.522Z,8.44
2023-02-12T09:06:13.455Z,8.45
2023-02-12T09:07:56.238Z,8.47
2023-02-12T09:09:28.949Z,8.47
2023-02-12T09:11:22.884Z,8.51
2023-02-12T09:13:04.601Z,8.50
2023-02-12T09:14:41.100Z,8.52
2023-02-12T09:16:50.328Z,8.59
2023-02-12T09:18:26.826Z,8.59
2023-02-12T09:20:02.588Z,8.62
2023-02-12T09:21:55.855Z,8.65
2023-02-12T09:23:36.283Z,8.67
2023-02-12T09:25:11.513Z,8.66
2023-02-12T09:27:13.431Z,8.65
2023-02-12T09:29:08.047Z,8.66
2023-02-12T09:46:44.162Z,8.73
2023-02-12T09:48:31.681Z,8.74
2023-02-12T10:53:23.937Z,9.62
2023-02-12T10:55:16.581Z,9.62
2023-02-12T10:57:13.306Z,9.55
2023-02-12T11:05:36.509Z,9.52
2023-02-12T11:08:16.047Z,9.53
2023-02-12T11:13:37.784Z,9.57
2023-02-12T11:16:12.608Z,9.66
2023-02-12T11:29:29.679Z,9.88
2023-02-12T13:00:01.943Z,10.42
2023-02-12T13:02:06.468Z,10.48
2023-02-12T13:04:52.962Z,10.43
2023-02-12T13:06:42.563Z,10.45
2023-02-12T13:08:35.506Z,10.49
2023-02-12T13:13:17.062Z,10.53
2023-02-12T13:15:12.531Z,10.47
2023-02-12T13:20:32.793Z,10.62
2023-02-12T13:23:47.017Z,10.67
2023-02-12T13:30:07.280Z,10.56
2023-02-12T13:32:15.029Z,10.55
2023-02-12T13:34:02.454Z,10.52
2023-02-12T13:35:59.850Z,10.49
2023-02-12T13:37:49.126Z,10.40
2023-02-12T13:40:30.099Z,10.45
2023-02-12T13:42:33.192Z,10.39
2023-02-12T13:44:33.567Z,10.40
2023-02-12T13:46:51.322Z,10.35
2023-02-12T13:48:42.334Z,10.40
2023-02-12T13:50:42.833Z,10.41
2023-02-12T13:52:37.936Z,10.41
2023-02-12T13:54:31.082Z,10.46
2023-02-12T13:56:34.227Z,10.39
2023-02-12T13:58:32.854Z,10.38
2023-02-12T14:00:46.510Z,10.42
2023-02-12T14:02:34.957Z,10.43
2023-02-12T14:05:00.847Z,10.48
2023-02-12T14:06:35.627Z,10.41
2023-02-12T14:08:08.488Z,10.40
2023-02-12T14:09:51.233Z,10.35
2023-02-12T14:11:32.549Z,10.31
2023-02-12T14:19:16.162Z,10.31
2023-02-12T14:50:17.690Z,10.19
2023-02-12T14:52:33.077Z,10.19
2023-02-12T15:00:18.656Z,10.19
2023-02-12T15:03:08.068Z,10.13
2023-02-12T15:04:49.844Z,10.09
2023-02-12T15:06:45.953Z,10.09
2023-02-12T15:08:55.202Z,10.04
2023-02-12T15:10:35.251Z,10.06
2023-02-12T15:12:21.842Z,10.07
2023-02-12T15:14:19.305Z,10.05
2023-02-12T15:33:37.133Z,9.60
2023-02-12T15:35:47.376Z,9.67
2023-02-12T15:37:31.846Z,9.71
2023-02-12T15:39:14.278Z,9.72
2023-02-12T15:41:00.528Z,9.76
2023-02-12T15:43:02.018Z,9.80
2023-02-12T15:44:57.947Z,9.77
2023-02-12T15:46:30.937Z,9.80
2023-02-12T15:48:24.325Z,9.84
2023-02-12T15:50:02.478Z,9.83
2023-02-12T15:51:46.457Z,9.82
2023-02-12T15:53:19.512Z,9.82
2023-02-12T15:54:51.699Z,9.82
2023-02-12T15:56:25.142Z,9.79
2023-02-12T15:58:02.372Z,9.80
2023-02-12T15:59:46.829Z,9.80
2023-02-12T16:10:11.560Z,9.83
2023-02-12T16:12:52.478Z,9.75
2023-02-12T16:12:54.049Z,9.86
2023-02-12T16:17:07.045Z,9.70
2023-02-12T16:32:32.832Z,9.71
2023-02-12T16:59:46.299Z,9.66
2023-02-12T17:02:28.785Z,9.66
2023-02-12T17:52:05.818Z,9.18
2023-02-12T17:53:49.594Z,9.20
2023-02-12T17:55:37.308Z,9.22
2023-02-12T17:57:13.047Z,9.21
2023-02-12T17:58:54.374Z,9.20
2023-02-12T18:00:30.032Z,9.23
2023-02-12T18:02:09.293Z,9.24
2023-02-12T18:03:47.544Z,9.25
2023-02-12T18:05:19.726Z,9.17
2023-02-12T18:06:52.092Z,9.14
2023-02-12T18:08:26.478Z,9.15
2023-02-12T18:09:58.562Z,9.14
2023-02-12T18:11:33.460Z,9.14
2023-02-12T18:13:28.274Z,9.16
2023-02-12T18:15:06.255Z,9.15
2023-02-12T18:16:40.703Z,9.16
2023-02-12T18:18:16.846Z,9.18
2023-02-12T18:19:49.584Z,9.16
2023-02-12T18:24:31.261Z,9.13
2023-02-12T18:29:17.288Z,9.10
2023-02-12T18:33:16.220Z,9.11
2023-02-12T18:35:04.601Z,9.09
2023-02-12T18:39:20.293Z,9.13
2023-02-12T19:09:12.497Z,8.87
2023-02-12T19:16:23.778Z,8.78
2023-02-12T19:17:58.220Z,8.79
2023-02-12T19:19:33.560Z,8.76
2023-02-12T19:21:13.039Z,8.73
2023-02-12T19:22:54.562Z,8.76
2023-02-12T19:24:50.039Z,8.79
2023-02-12T19:27:16.184Z,8.80
2023-02-12T19:28:27.244Z,8.81
2023-02-12T19:30:07.190Z,8.81
2023-02-12T19:31:41.900Z,8.80
2023-02-12T19:33:20.948Z,8.84
2023-02-12T19:34:59.956Z,8.81
2023-02-12T19:36:35.094Z,8.79
2023-02-12T19:38:07.887Z,8.80
2023-02-12T19:39:40.753Z,8.77
2023-02-12T19:41:17.339Z,8.71
2023-02-12T19:42:54.992Z,8.71
2023-02-12T19:44:47.458Z,8.74
2023-02-12T19:46:21.842Z,8.72
2023-02-12T19:47:54.330Z,8.71
2023-02-12T19:49:28.305Z,8.70
2023-02-12T19:51:01.093Z,8.70
2023-02-12T19:52:33.429Z,8.70
2023-02-12T19:54:11.235Z,8.67
2023-02-12T19:55:46.302Z,8.66
2023-02-12T19:57:27.893Z,8.63
2023-02-12T19:59:08.270Z,8.62
2023-02-12T20:00:40.686Z,8.67
2023-02-12T20:02:15.445Z,8.67
2023-02-12T20:03:55.452Z,8.71
2023-02-12T20:05:30.099Z,8.70
2023-02-12T20:07:02.332Z,8.73
2023-02-12T20:08:58.664Z,8.66
2023-02-12T20:12:51.563Z,8.61
2023-02-12T20:15:07.010Z,8.61
2023-02-12T20:17:07.756Z,8.60
2023-02-12T20:18:52.113Z,8.54
2023-02-12T20:20:40.991Z,8.53
2023-02-12T20:22:17.012Z,8.55
2023-02-12T20:24:32.966Z,8.56
2023-02-12T20:26:10.890Z,8.59
2023-02-12T20:28:00.822Z,8.60
2023-02-12T20:29:35.651Z,8.61
2023-02-12T20:31:23.730Z,8.59
2023-02-12T20:33:02.609Z,8.61
2023-02-12T20:34:50.892Z,8.64
2023-02-12T20:36:47.336Z,8.63
2023-02-12T20:38:32.233Z,8.65
2023-02-12T20:40:18.872Z,8.67
2023-02-12T20:41:56.781Z,8.66
2023-02-12T20:43:32.775Z,8.67
2023-02-12T20:45:06.267Z,8.69
2023-02-12T20:46:42.484Z,8.69
2023-02-12T20:48:14.602Z,8.69
2023-02-12T20:49:53.895Z,8.67
2023-02-12T20:51:26.997Z,8.68
2023-02-12T20:52:59.067Z,8.70
2023-02-12T20:54:31.023Z,8.69
2023-02-12T20:56:05.650Z,8.68
2023-02-12T20:57:37.749Z,8.68
2023-02-12T20:59:11.300Z,8.58
2023-02-12T21:00:43.429Z,8.60
2023-02-12T21:02:15.591Z,8.62
2023-02-12T21:03:48.721Z,8.63
2023-02-12T21:05:20.902Z,8.64
2023-02-12T21:06:52.881Z,8.63
2023-02-12T21:08:24.963Z,8.63
2023-02-12T21:09:59.577Z,8.63
2023-02-12T21:11:31.764Z,8.65
2023-02-12T21:13:03.650Z,8.65
2023-02-12T21:14:35.655Z,8.62
2023-02-12T21:16:10.980Z,8.63
2023-02-12T21:17:43.126Z,8.61
2023-02-12T21:19:15.083Z,8.56
2023-02-12T21:20:46.989Z,8.58
2023-02-12T21:22:18.911Z,8.50
2023-02-12T21:23:56.672Z,8.50
2023-02-12T21:25:28.950Z,8.49
2023-02-12T21:27:01.023Z,8.49
2023-02-12T21:28:33.789Z,8.46
2023-02-12T21:30:06.007Z,8.45
2023-02-12T21:31:40.721Z,8.43
2023-02-12T21:33:12.777Z,8.44
2023-02-12T21:34:45.012Z,8.43
2023-02-12T21:36:23.787Z,8.43
2023-02-12T21:37:55.894Z,8.43
2023-02-12T21:39:28.745Z,8.44
2023-02-12T21:41:15.932Z,8.44
2023-02-12T21:42:50.739Z,8.40
2023-02-12T21:44:24.119Z,8.40
2023-02-12T21:45:56.336Z,8.39
2023-02-12T21:47:28.663Z,8.38
2023-02-12T21:49:01.425Z,8.37
2023-02-12T21:50:36.728Z,8.37
2023-02-12T21:52:11.896Z,8.35
2023-02-12T21:53:44.186Z,8.37
2023-02-12T21:55:18.792Z,8.37
2023-02-12T21:56:51.891Z,8.37
2023-02-12T21:58:24.314Z,8.39
2023-02-12T21:59:56.552Z,8.38
2023-02-12T22:01:33.821Z,8.38
2023-02-12T22:03:06.369Z,8.37
2023-02-12T22:04:38.932Z,8.37
2023-02-12T22:06:12.162Z,8.38
2023-02-12T22:07:45.449Z,8.37
2023-02-12T22:09:23.950Z,8.36
2023-02-12T22:10:57.017Z,8.34
2023-02-12T22:12:35.007Z,8.36
2023-02-12T22:14:08.575Z,8.33
2023-02-12T22:15:40.605Z,8.33
2023-02-12T22:17:12.695Z,8.33
2023-02-12T22:18:45.199Z,8.35
2023-02-12T22:20:17.320Z,8.36
2023-02-12T22:21:51.919Z,8.36
2023-02-12T22:23:24.170Z,8.37
2023-02-12T22:24:56.178Z,8.39
2023-02-12T22:26:29.476Z,8.38
2023-02-12T22:28:01.656Z,8.39
2023-02-12T22:29:33.910Z,8.43
2023-02-12T22:31:07.231Z,8.43
2023-02-12T22:32:39.416Z,8.45
2023-02-12T22:34:14.125Z,8.45
2023-02-12T22:35:46.377Z,8.49
2023-02-12T22:37:18.448Z,8.51
2023-02-12T22:38:50.417Z,8.52
2023-02-12T22:40:22.456Z,8.54
2023-02-12T22:41:54.512Z,8.53
2023-02-12T22:43:29.448Z,8.54
2023-02-12T22:45:01.827Z,8.55
2023-02-12T22:46:35.456Z,8.52
2023-02-12T22:48:07.461Z,8.50
2023-02-12T22:49:39.541Z,8.50
2023-02-12T22:51:20.281Z,8.51
2023-02-12T22:52:52.358Z,8.51
2023-02-12T22:54:24.443Z,8.52
2023-02-12T22:55:56.788Z,8.51
2023-02-12T22:57:29.030Z,8.51
2023-02-12T22:59:05.049Z,8.51
2023-02-12T23:00:37.184Z,8.51
2023-02-12T23:02:09.661Z,8.52
2023-02-12T23:03:42.378Z,8.52
2023-02-12T23:05:14.561Z,8.50
2023-02-12T23:06:47.183Z,8.48
2023-02-12T23:08:19.161Z,8.48
2023-02-12T23:09:51.167Z,8.47
2023-02-12T23:11:24.766Z,8.45
2023-02-12T23:12:57.035Z,8.46
2023-02-12T23:14:29.280Z,8.42
2023-02-12T23:16:01.864Z,8.41
2023-02-12T23:17:34.134Z,8.39
2023-02-12T23:19:06.289Z,8.38
2023-02-12T23:20:40.592Z,8.35
2023-02-12T23:22:12.761Z,8.37
2023-02-12T23:23:44.927Z,8.37
2023-02-12T23:25:20.087Z,8.34
2023-02-12T23:27:43.353Z,8.35
2023-02-12T23:30:08.295Z,8.31
2023-02-12T23:31:46.605Z,8.26
2023-02-12T23:33:19.794Z,8.26
2023-02-12T23:34:55.170Z,8.27
2023-02-12T23:36:28.725Z,8.27
2023-02-12T23:38:01.016Z,8.27
2023-02-12T23:39:33.318Z,8.27
2023-02-12T23:41:05.645Z,8.25
2023-02-12T23:42:37.774Z,8.24
2023-02-12T23:44:10.484Z,8.23
2023-02-12T23:45:48.005Z,8.20
2023-02-12T23:47:20.304Z,8.18
2023-02-12T23:49:00.973Z,8.17
2023-02-12T23:50:36.532Z,8.17
2023-02-12T23:52:13.796Z,8.16
2023-02-12T23:53:48.466Z,8.17
2023-02-12T23:55:20.587Z,8.17
2023-02-12T23:56:52.851Z,8.17
2023-02-12T23:58:24.990Z,8.15
2023-02-12T23:59:57.211Z,8.16
